sensor_id;sensor_type;location;lat;lon;timestamp;pressure;altitude;pressure_sealevel;temperature;humidity
65227;BME280;51805;49.012;12.104;2022-10-16T00:02:13;97818.00;;;21.41;63.51
65227;BME280;51805;49.012;12.104;2022-10-16T00:04:38;97804.75;;;21.34;63.54
65227;BME280;51805;49.012;12.104;2022-10-16T00:07:04;97815.84;;;21.38;63.56
65227;BME280;51805;49.012;12.104;2022-10-16T00:09:29;97809.91;;;21.36;63.49
65227;BME280;51805;49.012;12.104;2022-10-16T00:11:54;97811.53;;;21.37;63.55
65227;BME280;51805;49.012;12.104;2022-10-16T00:14:19;97802.88;;;21.35;63.47
65227;BME280;51805;49.012;12.104;2022-10-16T00:16:45;97806.41;;;21.40;63.54
65227;BME280;51805;49.012;12.104;2022-10-16T00:19:11;97800.19;;;21.35;63.44
65227;BME280;51805;49.012;12.104;2022-10-16T00:21:36;97813.69;;;21.40;63.40
65227;BME280;51805;49.012;12.104;2022-10-16T00:24:05;97810.97;;;21.40;63.60
65227;BME280;51805;49.012;12.104;2022-10-16T00:26:33;97817.75;;;21.37;63.43
65227;BME280;51805;49.012;12.104;2022-10-16T00:28:58;97813.13;;;21.38;63.59
65227;BME280;51805;49.012;12.104;2022-10-16T00:31:24;97812.88;;;21.34;63.49
65227;BME280;51805;49.012;12.104;2022-10-16T00:33:50;97818.28;;;21.34;63.37
65227;BME280;51805;49.012;12.104;2022-10-16T00:36:18;97812.88;;;21.34;63.65
65227;BME280;51805;49.012;12.104;2022-10-16T00:38:44;97813.69;;;21.35;63.79
65227;BME280;51805;49.012;12.104;2022-10-16T00:41:18;97809.66;;;21.32;63.54
65227;BME280;51805;49.012;12.104;2022-10-16T00:43:45;97813.16;;;21.33;63.50
65227;BME280;51805;49.012;12.104;2022-10-16T00:46:31;97814.78;;;21.39;63.68
65227;BME280;51805;49.012;12.104;2022-10-16T00:49:11;97807.72;;;21.38;63.61
65227;BME280;51805;49.012;12.104;2022-10-16T00:51:41;97812.09;;;21.34;63.31
65227;BME280;51805;49.012;12.104;2022-10-16T00:54:13;97813.97;;;21.38;63.61
65227;BME280;51805;49.012;12.104;2022-10-16T00:56:39;97802.63;;;21.31;63.59
65227;BME280;51805;49.012;12.104;2022-10-16T00:59:11;97801.53;;;21.32;63.73
65227;BME280;51805;49.012;12.104;2022-10-16T01:01:40;97804.81;;;21.29;63.51
65227;BME280;51805;49.012;12.104;2022-10-16T01:04:05;97820.19;;;21.39;63.55
65227;BME280;51805;49.012;12.104;2022-10-16T01:12:10;97815.84;;;21.38;63.64
65227;BME280;51805;49.012;12.104;2022-10-16T01:14:47;97801.00;;;21.35;63.60
65227;BME280;51805;49.012;12.104;2022-10-16T01:17:25;97811.81;;;21.35;63.66
65227;BME280;51805;49.012;12.104;2022-10-16T01:20:01;97819.66;;;21.37;63.56
65227;BME280;51805;49.012;12.104;2022-10-16T01:23:07;97821.25;;;21.33;63.54
65227;BME280;51805;49.012;12.104;2022-10-16T01:25:51;97832.06;;;21.38;63.48
65227;BME280;51805;49.012;12.104;2022-10-16T01:28:23;97817.78;;;21.27;63.61
65227;BME280;51805;49.012;12.104;2022-10-16T01:30:53;97829.38;;;21.33;63.63
65227;BME280;51805;49.012;12.104;2022-10-16T01:33:25;97839.13;;;21.34;63.45
65227;BME280;51805;49.012;12.104;2022-10-16T01:35:58;97846.94;;;21.35;63.43
65227;BME280;51805;49.012;12.104;2022-10-16T01:38:33;97842.88;;;21.33;63.54
65227;BME280;51805;49.012;12.104;2022-10-16T01:41:04;97850.47;;;21.31;63.36
65227;BME280;51805;49.012;12.104;2022-10-16T01:43:45;97853.19;;;21.31;63.29
65227;BME280;51805;49.012;12.104;2022-10-16T01:46:13;97854.25;;;21.35;63.64
65227;BME280;51805;49.012;12.104;2022-10-16T01:48:40;97861.53;;;21.34;63.48
65227;BME280;51805;49.012;12.104;2022-10-16T01:51:09;97845.34;;;21.29;63.67
65227;BME280;51805;49.012;12.104;2022-10-16T01:53:35;97861.81;;;21.33;63.64
65227;BME280;51805;49.012;12.104;2022-10-16T01:56:03;97845.91;;;21.26;63.63
65227;BME280;51805;49.012;12.104;2022-10-16T01:58:34;97859.66;;;21.30;63.50
65227;BME280;51805;49.012;12.104;2022-10-16T02:01:01;97855.34;;;21.34;63.59
65227;BME280;51805;49.012;12.104;2022-10-16T02:03:27;97853.19;;;21.31;63.44
65227;BME280;51805;49.012;12.104;2022-10-16T02:05:54;97849.38;;;21.32;63.65
65227;BME280;51805;49.012;12.104;2022-10-16T02:08:22;97866.94;;;21.34;63.69
65227;BME280;51805;49.012;12.104;2022-10-16T02:10:49;97861.81;;;21.33;63.42
65227;BME280;51805;49.012;12.104;2022-10-16T02:13:22;97846.16;;;21.25;63.55
65227;BME280;51805;49.012;12.104;2022-10-16T02:15:50;97856.44;;;21.28;63.25
65227;BME280;51805;49.012;12.104;2022-10-16T02:18:16;97859.09;;;21.33;63.58
65227;BME280;51805;49.012;12.104;2022-10-16T02:21:04;97858.88;;;21.29;63.74
65227;BME280;51805;49.012;12.104;2022-10-16T02:23:50;97846.97;;;21.25;63.66
65227;BME280;51805;49.012;12.104;2022-10-16T02:26:20;97848.28;;;21.33;63.46
65227;BME280;51805;49.012;12.104;2022-10-16T02:28:52;97853.69;;;21.33;63.66
65227;BME280;51805;49.012;12.104;2022-10-16T02:31:22;97847.22;;;21.29;63.64
65227;BME280;51805;49.012;12.104;2022-10-16T02:33:51;97855.88;;;21.31;63.75
65227;BME280;51805;49.012;12.104;2022-10-16T02:36:17;97859.94;;;21.33;63.48
65227;BME280;51805;49.012;12.104;2022-10-16T02:38:43;97850.47;;;21.31;63.47
65227;BME280;51805;49.012;12.104;2022-10-16T02:41:09;97850.47;;;21.31;63.61
65227;BME280;51805;49.012;12.104;2022-10-16T02:43:34;97862.91;;;21.32;63.74
65227;BME280;51805;49.012;12.104;2022-10-16T02:45:59;97863.44;;;21.34;63.56
65227;BME280;51805;49.012;12.104;2022-10-16T02:48:25;97865.06;;;21.30;63.60
65227;BME280;51805;49.012;12.104;2022-10-16T02:50:50;97853.72;;;21.28;63.72
65227;BME280;51805;49.012;12.104;2022-10-16T02:53:15;97871.56;;;21.29;63.59
65227;BME280;51805;49.012;12.104;2022-10-16T02:55:41;97879.13;;;21.32;63.53
65227;BME280;51805;49.012;12.104;2022-10-16T02:58:06;97876.97;;;21.29;63.44
65227;BME280;51805;49.012;12.104;2022-10-16T03:00:31;97872.66;;;21.28;63.52
65227;BME280;51805;49.012;12.104;2022-10-16T03:02:56;97876.97;;;21.29;63.63
65227;BME280;51805;49.012;12.104;2022-10-16T03:05:22;97869.13;;;21.27;63.66
65227;BME280;51805;49.012;12.104;2022-10-16T03:07:47;97881.28;;;21.30;63.70
65227;BME280;51805;49.012;12.104;2022-10-16T03:10:12;97856.16;;;21.29;63.58
65227;BME280;51805;49.012;12.104;2022-10-16T03:12:38;97849.41;;;21.22;63.68
65227;BME280;51805;49.012;12.104;2022-10-16T03:15:03;97873.16;;;21.30;63.51
65227;BME280;51805;49.012;12.104;2022-10-16T03:17:29;97869.13;;;21.27;63.59
65227;BME280;51805;49.012;12.104;2022-10-16T03:19:54;97875.59;;;21.31;63.56
65227;BME280;51805;49.012;12.104;2022-10-16T03:22:19;97866.97;;;21.24;63.56
65227;BME280;51805;49.012;12.104;2022-10-16T03:24:45;97867.53;;;21.26;63.49
65227;BME280;51805;49.012;12.104;2022-10-16T03:27:10;97881.00;;;21.31;63.59
65227;BME280;51805;49.012;12.104;2022-10-16T03:29:35;97886.41;;;21.31;63.69
65227;BME280;51805;49.012;12.104;2022-10-16T03:32:01;97886.69;;;21.30;63.54
65227;BME280;51805;49.012;12.104;2022-10-16T03:34:27;97890.47;;;21.29;63.44
65227;BME280;51805;49.012;12.104;2022-10-16T03:36:52;97884.00;;;21.25;63.50
65227;BME280;51805;49.012;12.104;2022-10-16T03:39:19;97884.81;;;21.25;63.53
65227;BME280;51805;49.012;12.104;2022-10-16T03:41:44;97880.75;;;21.23;63.56
65227;BME280;51805;49.012;12.104;2022-10-16T03:44:09;97884.53;;;21.27;63.46
65227;BME280;51805;49.012;12.104;2022-10-16T03:46:35;97887.22;;;21.27;63.57
65227;BME280;51805;49.012;12.104;2022-10-16T03:49:00;97892.91;;;21.25;63.50
65227;BME280;51805;49.012;12.104;2022-10-16T03:51:25;97893.72;;;21.31;63.45
65227;BME280;51805;49.012;12.104;2022-10-16T03:53:51;97890.47;;;21.29;63.52
65227;BME280;51805;49.012;12.104;2022-10-16T03:56:17;97889.94;;;21.27;63.59
65227;BME280;51805;49.012;12.104;2022-10-16T03:58:42;97888.59;;;21.29;63.72
65227;BME280;51805;49.012;12.104;2022-10-16T04:01:07;97882.09;;;21.30;63.75
65227;BME280;51805;49.012;12.104;2022-10-16T04:03:33;97868.34;;;21.22;63.60
65227;BME280;51805;49.012;12.104;2022-10-16T04:05:58;97886.69;;;21.30;63.50
65227;BME280;51805;49.012;12.104;2022-10-16T04:08:23;97876.41;;;21.27;63.80
65227;BME280;51805;49.012;12.104;2022-10-16T04:10:49;97886.97;;;21.28;63.52
65227;BME280;51805;49.012;12.104;2022-10-16T04:13:14;97894.28;;;21.28;63.72
65227;BME280;51805;49.012;12.104;2022-10-16T04:15:40;97891.03;;;21.26;63.58
65227;BME280;51805;49.012;12.104;2022-10-16T04:18:05;97887.78;;;21.29;63.87
65227;BME280;51805;49.012;12.104;2022-10-16T04:20:31;97896.97;;;21.28;63.56
65227;BME280;51805;49.012;12.104;2022-10-16T04:22:56;97887.78;;;21.24;63.44
65227;BME280;51805;49.012;12.104;2022-10-16T04:25:22;97897.25;;;21.26;63.59
65227;BME280;51805;49.012;12.104;2022-10-16T04:27:47;97909.13;;;21.25;63.75
65227;BME280;51805;49.012;12.104;2022-10-16T04:30:13;97916.16;;;21.26;63.41
65227;BME280;51805;49.012;12.104;2022-10-16T04:32:38;97919.94;;;21.25;63.69
65227;BME280;51805;49.012;12.104;2022-10-16T04:35:04;97921.03;;;21.24;63.83
65227;BME280;51805;49.012;12.104;2022-10-16T04:37:29;97923.47;;;21.26;63.75
65227;BME280;51805;49.012;12.104;2022-10-16T04:39:54;97915.91;;;21.23;63.64
65227;BME280;51805;49.012;12.104;2022-10-16T04:42:20;97930.19;;;21.28;63.56
65227;BME280;51805;49.012;12.104;2022-10-16T04:44:46;97925.63;;;21.29;63.62
65227;BME280;51805;49.012;12.104;2022-10-16T04:47:12;97922.09;;;21.28;63.71
65227;BME280;51805;49.012;12.104;2022-10-16T04:49:38;97926.72;;;21.28;63.67
65227;BME280;51805;49.012;12.104;2022-10-16T04:52:03;97934.81;;;21.28;63.59
65227;BME280;51805;49.012;12.104;2022-10-16T04:54:29;97933.72;;;21.29;63.48
65227;BME280;51805;49.012;12.104;2022-10-16T04:56:54;97927.50;;;21.28;63.46
65227;BME280;51805;49.012;12.104;2022-10-16T04:59:19;97926.44;;;21.29;63.71
65227;BME280;51805;49.012;12.104;2022-10-16T05:01:45;97932.13;;;21.28;63.50
65227;BME280;51805;49.012;12.104;2022-10-16T05:04:11;97919.97;;;21.20;63.81
65227;BME280;51805;49.012;12.104;2022-10-16T05:06:37;97929.41;;;21.28;63.66
65227;BME280;51805;49.012;12.104;2022-10-16T05:09:03;97932.38;;;21.26;63.45
65227;BME280;51805;49.012;12.104;2022-10-16T05:11:28;97937.53;;;21.28;63.53
65227;BME280;51805;49.012;12.104;2022-10-16T05:13:53;97930.75;;;21.25;63.60
65227;BME280;51805;49.012;12.104;2022-10-16T05:16:18;97929.41;;;21.28;63.61
65227;BME280;51805;49.012;12.104;2022-10-16T05:18:44;97931.56;;;21.26;63.49
65227;BME280;51805;49.012;12.104;2022-10-16T05:21:09;97939.41;;;21.27;63.37
65227;BME280;51805;49.012;12.104;2022-10-16T05:23:34;97939.13;;;21.29;63.57
65227;BME280;51805;49.012;12.104;2022-10-16T05:26:00;97939.69;;;21.26;63.57
65227;BME280;51805;49.012;12.104;2022-10-16T05:28:26;97928.34;;;21.19;63.50
65227;BME280;51805;49.012;12.104;2022-10-16T05:30:52;97939.69;;;21.26;63.67
65227;BME280;51805;49.012;12.104;2022-10-16T05:33:20;97946.69;;;21.27;63.52
65227;BME280;51805;49.012;12.104;2022-10-16T05:35:45;97925.09;;;21.17;63.53
65227;BME280;51805;49.012;12.104;2022-10-16T05:38:10;97927.81;;;21.22;63.53
65227;BME280;51805;49.012;12.104;2022-10-16T05:40:36;97942.09;;;21.27;63.32
65227;BME280;51805;49.012;12.104;2022-10-16T05:43:01;97934.53;;;21.29;63.55
65227;BME280;51805;49.012;12.104;2022-10-16T05:45:26;97922.91;;;21.29;63.46
65227;BME280;51805;49.012;12.104;2022-10-16T05:47:52;97918.88;;;21.26;63.62
65227;BME280;51805;49.012;12.104;2022-10-16T05:50:17;97916.69;;;21.28;63.69
65227;BME280;51805;49.012;12.104;2022-10-16T05:52:42;97911.81;;;21.25;63.37
65227;BME280;51805;49.012;12.104;2022-10-16T05:55:08;97918.31;;;21.29;63.44
65227;BME280;51805;49.012;12.104;2022-10-16T05:57:33;97915.91;;;21.28;63.52
65227;BME280;51805;49.012;12.104;2022-10-16T05:59:58;97931.56;;;21.31;63.50
65227;BME280;51805;49.012;12.104;2022-10-16T06:02:24;97928.03;;;21.30;63.45
65227;BME280;51805;49.012;12.104;2022-10-16T06:04:51;97927.50;;;21.28;63.43
65227;BME280;51805;49.012;12.104;2022-10-16T06:07:16;97936.97;;;21.31;63.63
65227;BME280;51805;49.012;12.104;2022-10-16T06:09:41;97940.22;;;21.28;63.43
65227;BME280;51805;49.012;12.104;2022-10-16T06:12:07;97936.16;;;21.25;63.37
65227;BME280;51805;49.012;12.104;2022-10-16T06:14:32;97954.53;;;21.28;63.39
65227;BME280;51805;49.012;12.104;2022-10-16T06:16:57;97954.25;;;21.30;63.44
65227;BME280;51805;49.012;12.104;2022-10-16T06:19:23;97956.69;;;21.31;63.28
65227;BME280;51805;49.012;12.104;2022-10-16T06:21:48;97960.22;;;21.32;63.56
65227;BME280;51805;49.012;12.104;2022-10-16T06:24:13;97960.47;;;21.30;63.27
65227;BME280;51805;49.012;12.104;2022-10-16T06:26:38;97961.81;;;21.33;63.32
65227;BME280;51805;49.012;12.104;2022-10-16T06:29:04;97962.38;;;21.30;63.46
65227;BME280;51805;49.012;12.104;2022-10-16T06:31:29;97977.25;;;21.32;63.62
65227;BME280;51805;49.012;12.104;2022-10-16T06:33:55;97981.84;;;21.32;63.42
65227;BME280;51805;49.012;12.104;2022-10-16T06:36:20;97985.09;;;21.34;63.82
65227;BME280;51805;49.012;12.104;2022-10-16T06:38:46;97995.91;;;21.34;63.44
65227;BME280;51805;49.012;12.104;2022-10-16T06:41:13;97995.63;;;21.30;63.30
65227;BME280;51805;49.012;12.104;2022-10-16T06:43:38;97997.00;;;21.28;63.51
65227;BME280;51805;49.012;12.104;2022-10-16T06:46:05;98013.72;;;21.35;63.28
65227;BME280;51805;49.012;12.104;2022-10-16T06:48:31;98006.72;;;21.29;63.31
65227;BME280;51805;49.012;12.104;2022-10-16T06:53:31;98018.06;;;21.31;63.37
65227;BME280;51805;49.012;12.104;2022-10-16T06:55:57;98012.66;;;21.26;63.46
65227;BME280;51805;49.012;12.104;2022-10-16T06:58:23;98027.25;;;21.35;63.26
65227;BME280;51805;49.012;12.104;2022-10-16T07:00:48;98022.38;;;21.32;63.43
65227;BME280;51805;49.012;12.104;2022-10-16T07:03:14;98042.38;;;21.36;63.47
65227;BME280;51805;49.012;12.104;2022-10-16T07:05:40;98049.69;;;21.30;63.17
65227;BME280;51805;49.012;12.104;2022-10-16T07:08:06;98044.00;;;21.32;63.52
65227;BME280;51805;49.012;12.104;2022-10-16T07:10:32;98048.88;;;21.35;63.41
65227;BME280;51805;49.012;12.104;2022-10-16T07:12:57;98054.84;;;21.37;63.27
65227;BME280;51805;49.012;12.104;2022-10-16T07:15:24;98055.91;;;21.36;63.49
65227;BME280;51805;49.012;12.104;2022-10-16T07:17:50;98055.38;;;21.34;63.29
65227;BME280;51805;49.012;12.104;2022-10-16T07:20:15;98054.56;;;21.33;63.28
65227;BME280;51805;49.012;12.104;2022-10-16T07:22:40;98065.66;;;21.37;63.09
65227;BME280;51805;49.012;12.104;2022-10-16T07:25:06;98059.69;;;21.35;63.44
65227;BME280;51805;49.012;12.104;2022-10-16T07:27:31;98074.59;;;21.37;63.36
65227;BME280;51805;49.012;12.104;2022-10-16T07:29:57;98055.91;;;21.31;63.30
65227;BME280;51805;49.012;12.104;2022-10-16T07:32:22;98065.38;;;21.38;63.34
65227;BME280;51805;49.012;12.104;2022-10-16T07:34:47;98068.91;;;21.39;63.26
65227;BME280;51805;49.012;12.104;2022-10-16T07:37:13;98057.28;;;21.38;63.23
65227;BME280;51805;49.012;12.104;2022-10-16T07:39:38;98053.19;;;21.41;63.18
65227;BME280;51805;49.012;12.104;2022-10-16T07:42:03;98064.84;;;21.47;63.07
65227;BME280;51805;49.012;12.104;2022-10-16T07:44:28;98061.59;;;21.44;63.06
65227;BME280;51805;49.012;12.104;2022-10-16T07:46:54;98064.31;;;21.50;63.11
65227;BME280;51805;49.012;12.104;2022-10-16T07:49:19;98070.50;;;21.50;63.18
65227;BME280;51805;49.012;12.104;2022-10-16T07:51:44;98068.91;;;21.49;63.25
65227;BME280;51805;49.012;12.104;2022-10-16T07:54:10;98066.19;;;21.49;62.94
65227;BME280;51805;49.012;12.104;2022-10-16T07:56:35;98080.78;;;21.53;62.84
65227;BME280;51805;49.012;12.104;2022-10-16T07:59:00;98073.75;;;21.52;62.89
65227;BME280;51805;49.012;12.104;2022-10-16T08:01:26;98073.22;;;21.55;62.94
65227;BME280;51805;49.012;12.104;2022-10-16T08:03:51;98070.53;;;21.55;62.89
65227;BME280;51805;49.012;12.104;2022-10-16T08:06:19;98076.75;;;21.61;62.84
65227;BME280;51805;49.012;12.104;2022-10-16T08:08:44;98077.03;;;21.59;62.91
65227;BME280;51805;49.012;12.104;2022-10-16T08:11:10;98081.91;;;21.62;62.91
65227;BME280;51805;49.012;12.104;2022-10-16T08:13:35;98087.81;;;21.64;62.82
65227;BME280;51805;49.012;12.104;2022-10-16T08:16:01;98084.31;;;21.59;62.93
65227;BME280;51805;49.012;12.104;2022-10-16T08:18:27;98066.75;;;21.51;62.60
65227;BME280;51805;49.012;12.104;2022-10-16T08:20:59;98100.81;;;21.67;62.71
65227;BME280;51805;49.012;12.104;2022-10-16T08:23:25;98103.78;;;21.71;62.81
65227;BME280;51805;49.012;12.104;2022-10-16T08:25:50;98100.28;;;21.70;62.90
65227;BME280;51805;49.012;12.104;2022-10-16T08:28:15;98107.06;;;21.73;62.63
65227;BME280;51805;49.012;12.104;2022-10-16T08:30:41;98105.94;;;21.69;62.75
65227;BME280;51805;49.012;12.104;2022-10-16T08:33:06;98110.03;;;21.71;62.78
65227;BME280;51805;49.012;12.104;2022-10-16T08:35:31;98097.31;;;21.67;62.60
65227;BME280;51805;49.012;12.104;2022-10-16T08:37:57;98115.44;;;21.71;62.85
65227;BME280;51805;49.012;12.104;2022-10-16T08:40:25;98113.53;;;21.72;62.75
65227;BME280;51805;49.012;12.104;2022-10-16T08:51:04;98104.88;;;21.70;62.66
65227;BME280;51805;49.012;12.104;2022-10-16T08:53:34;98102.97;;;21.70;62.73
65227;BME280;51805;49.012;12.104;2022-10-16T08:56:03;98094.06;;;21.70;62.62
65227;BME280;51805;49.012;12.104;2022-10-16T08:58:29;98093.78;;;21.71;62.71
65227;BME280;51805;49.012;12.104;2022-10-16T09:01:02;98089.72;;;21.69;62.78
65227;BME280;51805;49.012;12.104;2022-10-16T09:03:54;98093.25;;;21.74;62.91
65227;BME280;51805;49.012;12.104;2022-10-16T09:16:47;98102.19;;;21.80;63.95
65227;BME280;51805;49.012;12.104;2022-10-16T09:19:24;98098.44;;;21.81;64.09
65227;BME280;51805;49.012;12.104;2022-10-16T09:21:52;98083.75;;;21.72;64.01
65227;BME280;51805;49.012;12.104;2022-10-16T09:24:21;98098.16;;;21.82;64.18
65227;BME280;51805;49.012;12.104;2022-10-16T09:26:47;98104.34;;;21.83;64.21
65227;BME280;51805;49.012;12.104;2022-10-16T09:29:16;98103.31;;;21.84;64.01
65227;BME280;51805;49.012;12.104;2022-10-16T09:31:42;98102.47;;;21.83;64.20
65227;BME280;51805;49.012;12.104;2022-10-16T09:36:46;98090.59;;;21.79;64.25
65227;BME280;51805;49.012;12.104;2022-10-16T09:39:11;98113.28;;;21.83;64.36
65227;BME280;51805;49.012;12.104;2022-10-16T09:41:42;98092.19;;;21.65;64.07
65227;BME280;51805;49.012;12.104;2022-10-16T09:44:28;98130.09;;;21.85;64.37
65227;BME280;51805;49.012;12.104;2022-10-16T09:47:15;98125.22;;;21.82;64.23
65227;BME280;51805;49.012;12.104;2022-10-16T09:49:51;98136.03;;;21.82;64.23
65227;BME280;51805;49.012;12.104;2022-10-16T09:54:58;98149.03;;;21.85;64.12
65227;BME280;51805;49.012;12.104;2022-10-16T09:57:24;98142.78;;;21.85;64.39
65227;BME280;51805;49.012;12.104;2022-10-16T09:59:51;98149.03;;;21.85;64.19
65227;BME280;51805;49.012;12.104;2022-10-16T10:02:19;98141.72;;;21.81;63.87
65227;BME280;51805;49.012;12.104;2022-10-16T10:04:51;98143.03;;;21.78;64.16
65227;BME280;51805;49.012;12.104;2022-10-16T10:07:42;98154.44;;;21.85;64.04
65227;BME280;51805;49.012;12.104;2022-10-16T10:10:24;98154.44;;;21.85;64.14
65227;BME280;51805;49.012;12.104;2022-10-16T10:12:50;98158.19;;;21.84;64.16
65227;BME280;51805;49.012;12.104;2022-10-16T10:15:16;98146.84;;;21.77;63.95
65227;BME280;51805;49.012;12.104;2022-10-16T10:17:55;98146.31;;;21.80;64.11
65227;BME280;51805;49.012;12.104;2022-10-16T10:20:27;98152.78;;;21.84;64.18
65227;BME280;51805;49.012;12.104;2022-10-16T10:22:54;98149.28;;;21.84;64.11
65227;BME280;51805;49.012;12.104;2022-10-16T10:25:30;98135.47;;;21.80;64.12
65227;BME280;51805;49.012;12.104;2022-10-16T10:30:51;98135.47;;;21.80;64.30
65227;BME280;51805;49.012;12.104;2022-10-16T10:33:44;98134.13;;;21.83;64.15
65227;BME280;51805;49.012;12.104;2022-10-16T10:38:59;98132.25;;;21.83;64.15
65227;BME280;51805;49.012;12.104;2022-10-16T10:41:51;98130.34;;;21.84;63.92
65227;BME280;51805;49.012;12.104;2022-10-16T10:54:54;98130.91;;;21.81;64.13
65227;BME280;51805;49.012;12.104;2022-10-16T11:06:16;98136.03;;;21.82;63.94
65227;BME280;51805;49.012;12.104;2022-10-16T11:08:58;98133.84;;;21.84;63.88
65227;BME280;51805;49.012;12.104;2022-10-16T11:11:26;98138.19;;;21.85;63.91
65227;BME280;51805;49.012;12.104;2022-10-16T11:13:59;98112.22;;;21.79;63.85
65227;BME280;51805;49.012;12.104;2022-10-16T11:16:41;98116.28;;;21.82;63.78
65227;BME280;51805;49.012;12.104;2022-10-16T11:19:33;98111.13;;;21.75;63.79
65227;BME280;51805;49.012;12.104;2022-10-16T11:27:36;98136.84;;;21.88;63.55
65227;BME280;51805;49.012;12.104;2022-10-16T11:30:05;98118.97;;;21.82;63.69
65227;BME280;51805;49.012;12.104;2022-10-16T11:32:35;98142.53;;;21.91;63.56
65227;BME280;51805;49.012;12.104;2022-10-16T11:35:12;98115.44;;;21.81;63.73
65227;BME280;51805;49.012;12.104;2022-10-16T11:37:43;98119.50;;;21.89;63.65
65227;BME280;51805;49.012;12.104;2022-10-16T11:40:31;98119.22;;;21.90;63.49
65227;BME280;51805;49.012;12.104;2022-10-16T11:43:17;98093.28;;;21.79;63.36
65227;BME280;51805;49.012;12.104;2022-10-16T11:45:47;98120.59;;;21.93;63.45
65227;BME280;51805;49.012;12.104;2022-10-16T11:51:05;98108.41;;;21.90;63.64
65227;BME280;51805;49.012;12.104;2022-10-16T11:53:46;98116.00;;;21.93;63.59
65227;BME280;51805;49.012;12.104;2022-10-16T11:56:17;98116.00;;;21.93;63.66
65227;BME280;51805;49.012;12.104;2022-10-16T11:59:02;98113.28;;;21.93;63.56
65227;BME280;51805;49.012;12.104;2022-10-16T12:01:38;98103.53;;;21.87;63.49
65227;BME280;51805;49.012;12.104;2022-10-16T12:06:46;98121.41;;;21.93;63.56
65227;BME280;51805;49.012;12.104;2022-10-16T12:09:25;98104.91;;;21.85;63.54
65227;BME280;51805;49.012;12.104;2022-10-16T12:11:51;98110.59;;;21.88;63.48
65227;BME280;51805;49.012;12.104;2022-10-16T12:14:36;98111.13;;;21.95;63.42
65227;BME280;51805;49.012;12.104;2022-10-16T12:19:57;98103.28;;;21.94;63.51
65227;BME280;51805;49.012;12.104;2022-10-16T12:22:22;98094.34;;;21.93;63.41
65227;BME280;51805;49.012;12.104;2022-10-16T12:24:51;98090.00;;;21.87;63.34
65227;BME280;51805;49.012;12.104;2022-10-16T12:27:28;98104.34;;;21.98;63.47
65227;BME280;51805;49.012;12.104;2022-10-16T12:29:59;98109.50;;;21.94;63.40
65227;BME280;51805;49.012;12.104;2022-10-16T12:32:37;98108.41;;;22.00;63.18
65227;BME280;51805;49.012;12.104;2022-10-16T12:35:06;98075.97;;;21.80;63.24
65227;BME280;51805;49.012;12.104;2022-10-16T12:37:34;98081.94;;;21.82;63.16
65227;BME280;51805;49.012;12.104;2022-10-16T12:40:15;98087.31;;;21.87;63.24
65227;BME280;51805;49.012;12.104;2022-10-16T12:42:48;98111.69;;;22.02;63.14
65227;BME280;51805;49.012;12.104;2022-10-16T12:45:27;98110.03;;;22.01;63.33
65227;BME280;51805;49.012;12.104;2022-10-16T12:47:54;98103.00;;;21.95;63.30
65227;BME280;51805;49.012;12.104;2022-10-16T12:52:48;98090.56;;;21.89;63.06
65227;BME280;51805;49.012;12.104;2022-10-16T12:55:18;98102.72;;;21.97;63.35
65227;BME280;51805;49.012;12.104;2022-10-16T13:00:26;98119.25;;;22.00;63.26
65227;BME280;51805;49.012;12.104;2022-10-16T13:03:22;98112.22;;;21.94;63.17
65227;BME280;51805;49.012;12.104;2022-10-16T13:08:34;98128.47;;;21.99;63.24
65227;BME280;51805;49.012;12.104;2022-10-16T13:11:28;98131.41;;;21.98;63.37
65227;BME280;51805;49.012;12.104;2022-10-16T13:14:23;98130.34;;;21.99;63.33
65227;BME280;51805;49.012;12.104;2022-10-16T13:19:46;98121.16;;;21.90;63.55
65227;BME280;51805;49.012;12.104;2022-10-16T13:22:28;98134.38;;;22.01;63.33
65227;BME280;51805;49.012;12.104;2022-10-16T13:27:46;98134.41;;;22.06;63.22
65227;BME280;51805;49.012;12.104;2022-10-16T13:30:18;98111.94;;;21.96;63.11
65227;BME280;51805;49.012;12.104;2022-10-16T13:32:49;98139.81;;;22.11;62.67
65227;BME280;51805;49.012;12.104;2022-10-16T13:35:24;98139.53;;;22.13;62.89
65227;BME280;51805;49.012;12.104;2022-10-16T13:37:50;98132.22;;;22.13;62.97
65227;BME280;51805;49.012;12.104;2022-10-16T13:40:22;98122.75;;;22.11;62.96
65227;BME280;51805;49.012;12.104;2022-10-16T13:42:49;98137.63;;;22.18;62.84
65227;BME280;51805;49.012;12.104;2022-10-16T13:45:22;98137.63;;;22.18;62.70
65227;BME280;51805;49.012;12.104;2022-10-16T13:47:48;98137.91;;;22.22;62.81
65227;BME280;51805;49.012;12.104;2022-10-16T13:50:17;98129.50;;;22.13;62.57
65227;BME280;51805;49.012;12.104;2022-10-16T13:52:43;98135.47;;;22.20;62.67
65227;BME280;51805;49.012;12.104;2022-10-16T13:55:16;98131.38;;;22.18;62.67
65227;BME280;51805;49.012;12.104;2022-10-16T13:57:42;98143.59;;;22.25;62.63
65227;BME280;51805;49.012;12.104;2022-10-16T14:00:24;98142.50;;;22.26;62.45
65227;BME280;51805;49.012;12.104;2022-10-16T14:02:58;98128.44;;;22.19;62.61
65227;BME280;51805;49.012;12.104;2022-10-16T14:05:26;98132.22;;;22.18;62.36
65227;BME280;51805;49.012;12.104;2022-10-16T14:07:52;98128.97;;;22.16;62.55
65227;BME280;51805;49.012;12.104;2022-10-16T14:10:30;98138.19;;;22.25;62.60
65227;BME280;51805;49.012;12.104;2022-10-16T14:13:04;98147.34;;;22.24;62.59
65227;BME280;51805;49.012;12.104;2022-10-16T14:15:31;98147.63;;;22.28;62.44
65227;BME280;51805;49.012;12.104;2022-10-16T14:17:58;98157.66;;;22.27;62.41
65227;BME280;51805;49.012;12.104;2022-10-16T14:20:29;98161.44;;;22.31;62.43
65227;BME280;51805;49.012;12.104;2022-10-16T14:23:04;98158.19;;;22.29;62.42
65227;BME280;51805;49.012;12.104;2022-10-16T14:25:31;98164.16;;;22.31;62.60